Map

Track Data

SID SEASON NUMBER BASIN SUBBASIN NAME ISO_TIME NATURE LAT LON WMO_WIND WMO_PRES WMO_AGENCY TRACK_TYPE DIST2LAND LANDFALL IFLAG USA_AGENCY USA_ATCF_ID USA_LAT USA_LON USA_RECORD USA_STATUS USA_WIND USA_PRES USA_SSHS USA_R34_NE USA_R34_SE USA_R34_SW USA_R34_NW USA_R50_NE USA_R50_SE USA_R50_SW USA_R50_NW USA_R64_NE USA_R64_SE USA_R64_SW USA_R64_NW USA_POCI USA_ROCI USA_RMW USA_EYE TOKYO_LAT TOKYO_LON TOKYO_GRADE TOKYO_WIND TOKYO_PRES TOKYO_R50_DIR TOKYO_R50_LONG TOKYO_R50_SHORT TOKYO_R30_DIR TOKYO_R30_LONG TOKYO_R30_SHORT TOKYO_LAND CMA_LAT CMA_LON CMA_CAT CMA_WIND CMA_PRES HKO_LAT HKO_LON HKO_CAT HKO_WIND HKO_PRES NEWDELHI_LAT NEWDELHI_LON NEWDELHI_GRADE NEWDELHI_WIND NEWDELHI_PRES NEWDELHI_CI NEWDELHI_DP NEWDELHI_POCI REUNION_LAT REUNION_LON REUNION_TYPE REUNION_WIND REUNION_PRES REUNION_TNUM REUNION_CI REUNION_RMW REUNION_R34_NE REUNION_R34_SE REUNION_R34_SW REUNION_R34_NW REUNION_R50_NE REUNION_R50_SE REUNION_R50_SW REUNION_R50_NW REUNION_R64_NE REUNION_R64_SE REUNION_R64_SW REUNION_R64_NW BOM_LAT BOM_LON BOM_TYPE BOM_WIND BOM_PRES BOM_TNUM BOM_CI BOM_RMW BOM_R34_NE BOM_R34_SE BOM_R34_SW BOM_R34_NW BOM_R50_NE BOM_R50_SE BOM_R50_SW BOM_R50_NW BOM_R64_NE BOM_R64_SE BOM_R64_SW BOM_R64_NW BOM_ROCI BOM_POCI BOM_EYE BOM_POS_METHOD BOM_PRES_METHOD NADI_LAT NADI_LON NADI_CAT NADI_WIND NADI_PRES WELLINGTON_LAT WELLINGTON_LON WELLINGTON_WIND WELLINGTON_PRES DS824_LAT DS824_LON DS824_STAGE DS824_WIND DS824_PRES TD9636_LAT TD9636_LON TD9636_STAGE TD9636_WIND TD9636_PRES TD9635_LAT TD9635_LON TD9635_WIND TD9635_PRES TD9635_ROCI NEUMANN_LAT NEUMANN_LON NEUMANN_CLASS NEUMANN_WIND NEUMANN_PRES MLC_LAT MLC_LON MLC_CLASS MLC_WIND MLC_PRES USA_GUST BOM_GUST BOM_GUST_PER REUNION_GUST REUNION_GUST_PER USA_SEAHGT USA_SEARAD_NE USA_SEARAD_SE USA_SEARAD_SW USA_SEARAD_NW STORM_SPEED STORM_DIR
1896270N34307 1896 38 NA NA NOT_NAMED 1896-09-25 12:00:00 SS 33.5000 -53.0000 main 1457 1457 _____________O -1 33.5000 -53.0000 SS 35 10 121
1896270N34307 1896 38 NA NA NOT_NAMED 1896-09-25 15:00:00 SS 33.2504 -52.4994 main 1481 1481 _____________P -1 33.2504 -52.4994 SS 37 10 121
1896270N34307 1896 38 NA NA NOT_NAMED 1896-09-25 18:00:00 SS 33.0000 -52.0000 main 1517 1517 _____________O -1 33.0000 -52.0000 SS 40 10 121
1896270N34307 1896 38 NA NA NOT_NAMED 1896-09-25 21:00:00 SS 32.7498 -51.5003 main 1553 1553 _____________P -1 32.7498 -51.5003 SS 42 10 121
1896270N34307 1896 38 NA NA NOT_NAMED 1896-09-26 00:00:00 SS 32.5000 -51.0000 main 1580 1580 _____________O -1 32.5000 -51.0000 SS 45 10 121
1896270N34307 1896 38 NA NA NOT_NAMED 1896-09-26 03:00:00 SS 32.2498 -50.5003 main 1619 1619 _____________P -1 32.2498 -50.5003 SS 45 10 121
1896270N34307 1896 38 NA NA NOT_NAMED 1896-09-26 06:00:00 SS 32.0000 -50.0000 main 1647 1647 _____________O -1 32.0000 -50.0000 SS 45 11 123
1896270N34307 1896 38 NA NA NOT_NAMED 1896-09-26 09:00:00 SS 31.6379 -49.4019 main 1700 1700 _____________P -1 31.6379 -49.4019 SS 45 10 120
1896270N34307 1896 38 NA NA NOT_NAMED 1896-09-26 12:00:00 TS 31.5000 -49.0000 main 1718 1674 _____________O -1 31.5000 -49.0000 TS 45 4 49
1896270N34307 1896 38 NA NA NOT_NAMED 1896-09-26 15:00:00 TS 31.8873 -49.0596 main 1673 1603 _____________P -1 31.8873 -49.0596 TS 45 10 346
1896270N34307 1896 38 NA NA NOT_NAMED 1896-09-26 18:00:00 TS 32.5000 -49.3000 main 1603 1547 _____________O -1 32.5000 -49.3000 TS 45 12 345
1896270N34307 1896 38 NA NA NOT_NAMED 1896-09-26 21:00:00 TS 32.9999 -49.4004 main 1547 1490 _____________P -1 32.9999 -49.4004 TS 45 10 350
1896270N34307 1896 38 NA NA NOT_NAMED 1896-09-27 00:00:00 TS 33.5000 -49.5000 main 1490 1434 _____________O -1 33.5000 -49.5000 TS 45 10 348
1896270N34307 1896 38 NA NA NOT_NAMED 1896-09-27 03:00:00 TS 34.0000 -49.6499 main 1434 1376 _____________P -1 34.0000 -49.6499 TS 45 10 346
1896270N34307 1896 38 NA NA NOT_NAMED 1896-09-27 06:00:00 TS 34.5000 -49.8000 main 1376 1319 _____________O -1 34.5000 -49.8000 TS 45 10 348
1896270N34307 1896 38 NA NA NOT_NAMED 1896-09-27 09:00:00 TS 35.0150 -49.9077 main 1319 1263 _____________P -1 35.0150 -49.9077 TS 45 10 351
1896270N34307 1896 38 NA NA NOT_NAMED 1896-09-27 12:00:00 TS 35.5000 -50.0000 main 1263 1217 _____________O -1 35.5000 -50.0000 TS 45 9 350
1896270N34307 1896 38 NA NA NOT_NAMED 1896-09-27 15:00:00 TS 35.9225 -50.1075 main 1217 1172 _____________P -1 35.9225 -50.1075 TS 45 8 348
1896270N34307 1896 38 NA NA NOT_NAMED 1896-09-27 18:00:00 TS 36.3000 -50.2000 main 1172 1139 _____________O -1 36.3000 -50.2000 TS 45 7 351
1896270N34307 1896 38 NA NA NOT_NAMED 1896-09-27 21:00:00 TS 36.6500 -50.2503 main 1137 1094 _____________P -1 36.6500 -50.2503 TS 45 7 354
1896270N34307 1896 38 NA NA NOT_NAMED 1896-09-28 00:00:00 TS 37.0000 -50.3000 main 1094 1048 _____________O -1 37.0000 -50.3000 TS 45 8 351
1896270N34307 1896 38 NA NA NOT_NAMED 1896-09-28 03:00:00 TS 37.4000 -50.4072 main 1048 1003 _____________P -1 37.4000 -50.4072 TS 47 8 349
1896270N34307 1896 38 NA NA NOT_NAMED 1896-09-28 06:00:00 TS 37.8000 -50.5000 main 1003 968 _____________O -1 37.8000 -50.5000 TS 50 8 349
1896270N34307 1896 38 NA NA NOT_NAMED 1896-09-28 09:00:00 TS 38.1571 -50.5891 main 957 927 _____________P -1 38.1571 -50.5891 TS 52 7 0
1896270N34307 1896 38 NA NA NOT_NAMED 1896-09-28 12:00:00 TS 38.5000 -50.5000 main 927 900 _____________O -1 38.5000 -50.5000 TS 55 8 30
1896270N34307 1896 38 NA NA NOT_NAMED 1896-09-28 15:00:00 TS 38.8579 -50.0758 main 892 872 _____________P -1 38.8579 -50.0758 TS 57 10 48
1896270N34307 1896 38 NA NA NOT_NAMED 1896-09-28 18:00:00 TS 39.2000 -49.5000 main 875 856 _____________O -1 39.2000 -49.5000 TS 60 11 52
1896270N34307 1896 38 NA NA NOT_NAMED 1896-09-28 21:00:00 TS 39.5073 -48.9994 main 859 842 _____________P -1 39.5073 -48.9994 TS 60 10 52
1896270N34307 1896 38 NA NA NOT_NAMED 1896-09-29 00:00:00 TS 39.8000 -48.5000 main 845 830 _____________O -1 39.8000 -48.5000 TS 60 10 52
1896270N34307 1896 38 NA NA NOT_NAMED 1896-09-29 03:00:00 TS 40.0998 -47.9996 main 834 822 _____________P -1 40.0998 -47.9996 TS 57 10 52
1896270N34307 1896 38 NA NA NOT_NAMED 1896-09-29 06:00:00 TS 40.4000 -47.5000 main 827 817 _____________O -1 40.4000 -47.5000 TS 55 9 52
1896270N34307 1896 38 NA NA NOT_NAMED 1896-09-29 09:00:00 TS 40.6844 -47.0287 main 822 815 _____________P -1 40.6844 -47.0287 TS 55 10 52
1896270N34307 1896 38 NA NA NOT_NAMED 1896-09-29 12:00:00 TS 41.0000 -46.5000 main 820 816 _____________O -1 41.0000 -46.5000 TS 55 11 52
1896270N34307 1896 38 NA NA NOT_NAMED 1896-09-29 15:00:00 TS 41.3926 -45.8303 main 825 822 _____________P -1 41.3926 -45.8303 TS 55 13 53
1896270N34307 1896 38 NA NA NOT_NAMED 1896-09-29 18:00:00 TS 41.8000 -45.1000 main 834 833 _____________O -1 41.8000 -45.1000 TS 55 13 55
1896270N34307 1896 38 NA NA NOT_NAMED 1896-09-29 21:00:00 TS 42.1497 -44.3914 main 856 849 _____________P -1 42.1497 -44.3914 TS 55 12 56
1896270N34307 1896 38 NA NA NOT_NAMED 1896-09-30 00:00:00 ET 42.5000 -43.7000 main 873 873 _____________O -1 42.5000 -43.7000 EX 55 12 53
1896270N34307 1896 38 NA NA NOT_NAMED 1896-09-30 03:00:00 ET 42.8994 -43.0494 main 895 895 _____________P -1 42.8994 -43.0494 EX 55 12 50
1896270N34307 1896 38 NA NA NOT_NAMED 1896-09-30 06:00:00 ET 43.3000 -42.4000 main 915 915 _____________O -1 43.3000 -42.4000 EX 55 13 53
1896270N34307 1896 38 NA NA NOT_NAMED 1896-09-30 09:00:00 ET 43.6808 -41.6259 main 949 949 _____________P -1 43.6808 -41.6259 EX 55 12 55
1896270N34307 1896 38 NA NA NOT_NAMED 1896-09-30 12:00:00 ET 44.0000 -41.0000 main 975 975 _____________O -1 44.0000 -41.0000 EX 55 8 49
1896270N34307 1896 38 NA NA NOT_NAMED 1896-09-30 15:00:00 ET 44.2217 -40.7585 main 980 977 _____________P -1 44.2217 -40.7585 EX 52 5 28
1896270N34307 1896 38 NA NA NOT_NAMED 1896-09-30 18:00:00 ET 44.4000 -40.7000 main 977 972 _____________O -1 44.4000 -40.7000 EX 50 4 16
1896270N34307 1896 38 NA NA NOT_NAMED 1896-09-30 21:00:00 ET 44.5999 -40.5998 main 975 971 _____________P -1 44.5999 -40.5998 EX 47 4 19
1896270N34307 1896 38 NA NA NOT_NAMED 1896-10-01 00:00:00 ET 44.8000 -40.5000 main 974 970 _____________O -1 44.8000 -40.5000 EX 45 4 23
1896270N34307 1896 38 NA NA NOT_NAMED 1896-10-01 03:00:00 ET 45.0075 -40.3501 main 973 973 _____________P -1 45.0075 -40.3501 EX 42 5 28
1896270N34307 1896 38 NA NA NOT_NAMED 1896-10-01 06:00:00 ET 45.2000 -40.2000 main 980 976 _____________O -1 45.2000 -40.2000 EX 40 4 28
1896270N34307 1896 38 NA NA NOT_NAMED 1896-10-01 09:00:00 ET 45.3600 -40.0875 main 980 980 _____________P -1 45.3600 -40.0875 EX 35 3 25
1896270N34307 1896 38 NA NA NOT_NAMED 1896-10-01 12:00:00 ET 45.5000 -40.0000 main 984 _____________O -1 45.5000 -40.0000 EX 30 3 24

About IBTrACS Database

This database is a web-friendly format of International Best Track Archive for Climate Stewardship (IBTrACS), a global best track data archive curated by NOAA dating back to 1842.

Updated: 2021-10-25